Guerreiro Do Mar — CUGH4 — position and weather

sailwx.info

Track history (hours):
 
Tides and Currents Weather Stations Pressure Air Temp Water Temp Dewpoint Dewpoint Depression Visibility Wind Speed Wind Dir Waves Ship Positions

Guerreiro Do Mar

Last reported at 2017-Sep-26 06:53 UTC. Time now 2017-Sep-26 11:12 UTC.
Position N 39°17' W 009°23'.

Type: Fishing. MMSI: 263314000.

Date/timePositionNaut miles runAvg speedWind from/ knotsBaromVisibWave heightAir tempDewpointWater temp
2017-Sep-26 06:53N 39°17' W 009°23'3 2.8
2017-Sep-26 05:49N 39°14' W 009°22'2 3.0
2017-Sep-26 05:17N 39°13' W 009°23'3 0.3
2017-Sep-25 19:46N 39°16' W 009°23'5 4.9
2017-Sep-25 18:45N 39°20' W 009°26'3 8.3
2017-Sep-25 18:26N 39°18' W 009°24'10 3.4
2017-Sep-25 15:31N 39°26' W 009°31'2 4.1
2017-Sep-25 14:58N 39°28' W 009°31'  
2017-Sep-21 20:57N 39°17' W 009°24'3 7.3
2017-Sep-21 20:30N 39°14' W 009°26'4 7.2
2017-Sep-21 20:00N 39°10' W 009°28'0 0.3
2017-Sep-21 19:30N 39°10' W 009°28'0 0.5
2017-Sep-21 19:00N 39°10' W 009°28'3 6.3
2017-Sep-21 18:29N 39°08' W 009°25'14 0.5
2017-Sep-20 12:21N 39°22' W 009°26'3 0.1
2017-Sep-18 20:07N 39°20' W 009°25'0 0.8
2017-Sep-18 19:42N 39°20' W 009°25'0 0.6
2017-Sep-18 19:22N 39°20' W 009°25'1 1.3
2017-Sep-18 18:56N 39°21' W 009°26'  
Track history (hours):
 
Tides and Currents Weather Stations Pressure Air Temp Water Temp Dewpoint Dewpoint Depression Visibility Wind Speed Wind Dir Waves Ship Positions

Guerreiro Do Mar

Last reported at 2017-Sep-26 06:53 UTC. Time now 2017-Sep-26 11:12 UTC.
Position N 39°17' W 009°23'.

Type: Fishing. MMSI: 263314000.

Date/timePositionNaut miles runAvg speedWind from/ knotsBaromVisibWave heightAir tempDewpointWater temp
2017-Sep-26 06:53N 39°17' W 009°23'3 2.8
2017-Sep-26 05:49N 39°14' W 009°22'2 3.0
2017-Sep-26 05:17N 39°13' W 009°23'3 0.3
2017-Sep-25 19:46N 39°16' W 009°23'5 4.9
2017-Sep-25 18:45N 39°20' W 009°26'3 8.3
2017-Sep-25 18:26N 39°18' W 009°24'10 3.4
2017-Sep-25 15:31N 39°26' W 009°31'2 4.1
2017-Sep-25 14:58N 39°28' W 009°31'  
2017-Sep-21 20:57N 39°17' W 009°24'3 7.3
2017-Sep-21 20:30N 39°14' W 009°26'4 7.2
2017-Sep-21 20:00N 39°10' W 009°28'0 0.3
2017-Sep-21 19:30N 39°10' W 009°28'0 0.5
2017-Sep-21 19:00N 39°10' W 009°28'3 6.3
2017-Sep-21 18:29N 39°08' W 009°25'14 0.5
2017-Sep-20 12:21N 39°22' W 009°26'3 0.1
2017-Sep-18 20:07N 39°20' W 009°25'0 0.8
2017-Sep-18 19:42N 39°20' W 009°25'0 0.6
2017-Sep-18 19:22N 39°20' W 009°25'1 1.3
2017-Sep-18 18:56N 39°21' W 009°26'  

Dump ship's entire track history